sensor_id;sensor_type;location;lat;lon;timestamp;P1;durP1;ratioP1;P2;durP2;ratioP2
9783;SDS011;4931;44.874;-1.092;2022-12-29T00:01:23;41.00;;;7.85;;
9783;SDS011;4931;44.874;-1.092;2022-12-29T00:03:48;50.10;;;8.50;;
9783;SDS011;4931;44.874;-1.092;2022-12-29T00:06:14;40.17;;;8.88;;
9783;SDS011;4931;44.874;-1.092;2022-12-29T00:08:39;47.53;;;8.68;;
9783;SDS011;4931;44.874;-1.092;2022-12-29T00:11:09;39.97;;;7.93;;
9783;SDS011;4931;44.874;-1.092;2022-12-29T00:13:35;49.65;;;7.72;;
9783;SDS011;4931;44.874;-1.092;2022-12-29T00:16:19;49.55;;;7.60;;
9783;SDS011;4931;44.874;-1.092;2022-12-29T00:18:44;41.42;;;7.75;;
9783;SDS011;4931;44.874;-1.092;2022-12-29T00:21:13;44.47;;;7.72;;
9783;SDS011;4931;44.874;-1.092;2022-12-29T00:23:59;47.13;;;9.65;;
9783;SDS011;4931;44.874;-1.092;2022-12-29T00:26:43;43.30;;;7.50;;
9783;SDS011;4931;44.874;-1.092;2022-12-29T00:29:28;39.03;;;8.40;;
9783;SDS011;4931;44.874;-1.092;2022-12-29T00:32:12;37.78;;;7.30;;
9783;SDS011;4931;44.874;-1.092;2022-12-29T00:34:56;30.63;;;7.00;;
9783;SDS011;4931;44.874;-1.092;2022-12-29T00:37:37;29.48;;;6.25;;
9783;SDS011;4931;44.874;-1.092;2022-12-29T00:40:26;33.58;;;5.90;;
9783;SDS011;4931;44.874;-1.092;2022-12-29T00:43:10;36.40;;;5.60;;
9783;SDS011;4931;44.874;-1.092;2022-12-29T00:45:55;32.50;;;5.95;;
9783;SDS011;4931;44.874;-1.092;2022-12-29T00:48:21;26.45;;;6.65;;
9783;SDS011;4931;44.874;-1.092;2022-12-29T00:51:06;29.88;;;5.70;;
9783;SDS011;4931;44.874;-1.092;2022-12-29T00:53:32;26.40;;;4.85;;
9783;SDS011;4931;44.874;-1.092;2022-12-29T00:55:57;26.70;;;5.38;;
9783;SDS011;4931;44.874;-1.092;2022-12-29T00:58:23;20.98;;;4.90;;
9783;SDS011;4931;44.874;-1.092;2022-12-29T01:00:52;20.95;;;4.35;;
9783;SDS011;4931;44.874;-1.092;2022-12-29T01:03:17;26.75;;;4.72;;
9783;SDS011;4931;44.874;-1.092;2022-12-29T01:05:43;22.27;;;4.38;;
9783;SDS011;4931;44.874;-1.092;2022-12-29T01:08:09;27.08;;;4.53;;
9783;SDS011;4931;44.874;-1.092;2022-12-29T01:10:34;28.17;;;4.93;;
9783;SDS011;4931;44.874;-1.092;2022-12-29T01:13:00;24.92;;;4.22;;
9783;SDS011;4931;44.874;-1.092;2022-12-29T01:15:25;23.05;;;4.00;;
9783;SDS011;4931;44.874;-1.092;2022-12-29T01:17:50;24.00;;;4.10;;
9783;SDS011;4931;44.874;-1.092;2022-12-29T01:20:16;28.52;;;4.18;;
9783;SDS011;4931;44.874;-1.092;2022-12-29T01:22:42;19.58;;;3.92;;
9783;SDS011;4931;44.874;-1.092;2022-12-29T01:25:08;29.42;;;3.72;;
9783;SDS011;4931;44.874;-1.092;2022-12-29T01:27:34;17.15;;;3.22;;
9783;SDS011;4931;44.874;-1.092;2022-12-29T01:29:59;16.27;;;3.60;;
9783;SDS011;4931;44.874;-1.092;2022-12-29T01:32:25;23.15;;;4.45;;
9783;SDS011;4931;44.874;-1.092;2022-12-29T01:34:50;17.25;;;3.20;;
9783;SDS011;4931;44.874;-1.092;2022-12-29T01:37:16;24.33;;;3.80;;
9783;SDS011;4931;44.874;-1.092;2022-12-29T01:39:41;30.25;;;3.92;;
9783;SDS011;4931;44.874;-1.092;2022-12-29T01:42:12;25.88;;;3.78;;
9783;SDS011;4931;44.874;-1.092;2022-12-29T01:47:18;27.23;;;4.10;;
9783;SDS011;4931;44.874;-1.092;2022-12-29T01:49:54;24.95;;;3.47;;
9783;SDS011;4931;44.874;-1.092;2022-12-29T01:52:22;20.08;;;3.42;;
9783;SDS011;4931;44.874;-1.092;2022-12-29T01:54:50;25.33;;;3.55;;
9783;SDS011;4931;44.874;-1.092;2022-12-29T01:57:21;21.42;;;3.58;;
9783;SDS011;4931;44.874;-1.092;2022-12-29T02:00:00;18.02;;;2.78;;
9783;SDS011;4931;44.874;-1.092;2022-12-29T02:02:34;19.40;;;3.20;;
9783;SDS011;4931;44.874;-1.092;2022-12-29T02:05:01;23.90;;;3.45;;
9783;SDS011;4931;44.874;-1.092;2022-12-29T02:07:32;21.80;;;3.53;;
9783;SDS011;4931;44.874;-1.092;2022-12-29T02:09:57;26.58;;;3.78;;
9783;SDS011;4931;44.874;-1.092;2022-12-29T02:12:25;18.48;;;3.30;;
9783;SDS011;4931;44.874;-1.092;2022-12-29T02:14:52;16.27;;;2.97;;
9783;SDS011;4931;44.874;-1.092;2022-12-29T02:28:48;23.13;;;3.35;;
9783;SDS011;4931;44.874;-1.092;2022-12-29T02:31:30;28.02;;;3.72;;
9783;SDS011;4931;44.874;-1.092;2022-12-29T02:34:10;18.08;;;3.17;;
9783;SDS011;4931;44.874;-1.092;2022-12-29T02:37:26;20.92;;;2.78;;
9783;SDS011;4931;44.874;-1.092;2022-12-29T02:42:54;23.27;;;2.80;;
9783;SDS011;4931;44.874;-1.092;2022-12-29T02:45:43;26.60;;;3.38;;
9783;SDS011;4931;44.874;-1.092;2022-12-29T02:53:18;20.35;;;3.10;;
9783;SDS011;4931;44.874;-1.092;2022-12-29T02:56:05;22.30;;;2.60;;
9783;SDS011;4931;44.874;-1.092;2022-12-29T02:58:31;25.83;;;3.55;;
9783;SDS011;4931;44.874;-1.092;2022-12-29T03:03:37;28.58;;;3.70;;
9783;SDS011;4931;44.874;-1.092;2022-12-29T03:11:14;31.70;;;3.75;;
9783;SDS011;4931;44.874;-1.092;2022-12-29T03:18:04;21.88;;;3.75;;
9783;SDS011;4931;44.874;-1.092;2022-12-29T03:20:51;30.92;;;3.60;;
9783;SDS011;4931;44.874;-1.092;2022-12-29T03:23:20;26.33;;;3.85;;
9783;SDS011;4931;44.874;-1.092;2022-12-29T03:25:48;27.52;;;4.00;;
9783;SDS011;4931;44.874;-1.092;2022-12-29T03:30:47;25.38;;;3.70;;
9783;SDS011;4931;44.874;-1.092;2022-12-29T03:33:14;35.15;;;4.97;;
9783;SDS011;4931;44.874;-1.092;2022-12-29T03:35:44;30.15;;;4.20;;
9783;SDS011;4931;44.874;-1.092;2022-12-29T03:38:25;25.55;;;3.88;;
9783;SDS011;4931;44.874;-1.092;2022-12-29T03:40:56;26.58;;;3.78;;
9783;SDS011;4931;44.874;-1.092;2022-12-29T03:43:24;34.05;;;4.05;;
9783;SDS011;4931;44.874;-1.092;2022-12-29T03:45:51;29.27;;;3.92;;
9783;SDS011;4931;44.874;-1.092;2022-12-29T03:48:16;32.60;;;3.88;;
9783;SDS011;4931;44.874;-1.092;2022-12-29T03:50:41;27.30;;;4.00;;
9783;SDS011;4931;44.874;-1.092;2022-12-29T03:53:07;33.50;;;4.45;;
9783;SDS011;4931;44.874;-1.092;2022-12-29T03:55:32;31.52;;;4.15;;
9783;SDS011;4931;44.874;-1.092;2022-12-29T03:57:58;25.67;;;3.35;;
9783;SDS011;4931;44.874;-1.092;2022-12-29T04:00:23;30.02;;;3.97;;
9783;SDS011;4931;44.874;-1.092;2022-12-29T04:02:49;30.67;;;3.60;;
9783;SDS011;4931;44.874;-1.092;2022-12-29T04:05:14;30.00;;;4.25;;
9783;SDS011;4931;44.874;-1.092;2022-12-29T04:07:40;30.65;;;4.28;;
9783;SDS011;4931;44.874;-1.092;2022-12-29T04:10:06;22.77;;;3.13;;
9783;SDS011;4931;44.874;-1.092;2022-12-29T04:12:31;24.25;;;2.70;;
9783;SDS011;4931;44.874;-1.092;2022-12-29T04:14:57;26.73;;;3.22;;
9783;SDS011;4931;44.874;-1.092;2022-12-29T04:17:22;32.50;;;3.55;;
9783;SDS011;4931;44.874;-1.092;2022-12-29T04:19:48;31.02;;;3.20;;
9783;SDS011;4931;44.874;-1.092;2022-12-29T04:22:13;29.35;;;3.42;;
9783;SDS011;4931;44.874;-1.092;2022-12-29T04:24:39;34.20;;;4.25;;
9783;SDS011;4931;44.874;-1.092;2022-12-29T04:27:04;24.95;;;3.70;;
9783;SDS011;4931;44.874;-1.092;2022-12-29T04:29:29;32.22;;;4.05;;
9783;SDS011;4931;44.874;-1.092;2022-12-29T04:31:55;38.78;;;4.18;;
9783;SDS011;4931;44.874;-1.092;2022-12-29T04:34:20;28.17;;;3.85;;
9783;SDS011;4931;44.874;-1.092;2022-12-29T04:36:46;34.08;;;4.38;;
9783;SDS011;4931;44.874;-1.092;2022-12-29T04:39:11;31.58;;;3.92;;
9783;SDS011;4931;44.874;-1.092;2022-12-29T04:41:37;44.05;;;4.45;;
9783;SDS011;4931;44.874;-1.092;2022-12-29T04:44:02;39.40;;;4.90;;
9783;SDS011;4931;44.874;-1.092;2022-12-29T04:46:28;28.00;;;4.63;;
9783;SDS011;4931;44.874;-1.092;2022-12-29T04:48:53;25.67;;;4.53;;
9783;SDS011;4931;44.874;-1.092;2022-12-29T04:51:19;33.40;;;4.60;;
9783;SDS011;4931;44.874;-1.092;2022-12-29T04:53:44;31.65;;;4.60;;
9783;SDS011;4931;44.874;-1.092;2022-12-29T04:56:10;40.15;;;4.35;;
9783;SDS011;4931;44.874;-1.092;2022-12-29T04:58:35;34.67;;;4.10;;
9783;SDS011;4931;44.874;-1.092;2022-12-29T05:01:01;38.38;;;4.57;;
9783;SDS011;4931;44.874;-1.092;2022-12-29T05:03:27;35.28;;;4.93;;
9783;SDS011;4931;44.874;-1.092;2022-12-29T05:05:53;39.17;;;4.65;;
9783;SDS011;4931;44.874;-1.092;2022-12-29T05:08:20;41.00;;;4.63;;
9783;SDS011;4931;44.874;-1.092;2022-12-29T05:10:46;39.92;;;4.35;;
9783;SDS011;4931;44.874;-1.092;2022-12-29T05:13:12;39.42;;;4.38;;
9783;SDS011;4931;44.874;-1.092;2022-12-29T05:15:37;43.78;;;4.53;;
9783;SDS011;4931;44.874;-1.092;2022-12-29T05:18:03;33.65;;;4.35;;
9783;SDS011;4931;44.874;-1.092;2022-12-29T05:20:28;37.08;;;4.55;;
9783;SDS011;4931;44.874;-1.092;2022-12-29T05:22:53;33.45;;;4.25;;
9783;SDS011;4931;44.874;-1.092;2022-12-29T05:25:19;38.72;;;4.78;;
9783;SDS011;4931;44.874;-1.092;2022-12-29T05:27:44;37.33;;;4.95;;
9783;SDS011;4931;44.874;-1.092;2022-12-29T05:30:10;40.38;;;5.10;;
9783;SDS011;4931;44.874;-1.092;2022-12-29T05:32:36;41.58;;;5.38;;
9783;SDS011;4931;44.874;-1.092;2022-12-29T05:35:01;45.92;;;5.93;;
9783;SDS011;4931;44.874;-1.092;2022-12-29T05:37:27;43.35;;;5.05;;
9783;SDS011;4931;44.874;-1.092;2022-12-29T05:39:52;38.20;;;5.05;;
9783;SDS011;4931;44.874;-1.092;2022-12-29T05:42:18;38.05;;;5.43;;
9783;SDS011;4931;44.874;-1.092;2022-12-29T05:44:43;44.25;;;5.25;;
9783;SDS011;4931;44.874;-1.092;2022-12-29T05:47:09;45.70;;;6.07;;
9783;SDS011;4931;44.874;-1.092;2022-12-29T05:49:34;53.08;;;5.28;;
9783;SDS011;4931;44.874;-1.092;2022-12-29T05:51:59;40.08;;;5.00;;
9783;SDS011;4931;44.874;-1.092;2022-12-29T05:54:25;47.70;;;5.25;;
9783;SDS011;4931;44.874;-1.092;2022-12-29T05:56:50;47.67;;;6.65;;
9783;SDS011;4931;44.874;-1.092;2022-12-29T05:59:16;51.63;;;5.97;;
9783;SDS011;4931;44.874;-1.092;2022-12-29T06:01:41;45.17;;;5.32;;
9783;SDS011;4931;44.874;-1.092;2022-12-29T06:04:07;36.10;;;5.20;;
9783;SDS011;4931;44.874;-1.092;2022-12-29T06:06:32;44.65;;;5.53;;
9783;SDS011;4931;44.874;-1.092;2022-12-29T06:08:58;45.00;;;5.63;;
9783;SDS011;4931;44.874;-1.092;2022-12-29T06:11:23;37.75;;;4.85;;
9783;SDS011;4931;44.874;-1.092;2022-12-29T06:13:48;45.53;;;5.97;;
9783;SDS011;4931;44.874;-1.092;2022-12-29T06:16:14;47.63;;;6.30;;
9783;SDS011;4931;44.874;-1.092;2022-12-29T06:18:39;44.53;;;5.35;;
9783;SDS011;4931;44.874;-1.092;2022-12-29T06:21:05;48.67;;;6.80;;
9783;SDS011;4931;44.874;-1.092;2022-12-29T06:23:30;51.80;;;9.60;;
9783;SDS011;4931;44.874;-1.092;2022-12-29T06:25:56;50.38;;;10.07;;
9783;SDS011;4931;44.874;-1.092;2022-12-29T06:28:22;48.33;;;8.02;;
9783;SDS011;4931;44.874;-1.092;2022-12-29T06:30:48;50.45;;;8.05;;
9783;SDS011;4931;44.874;-1.092;2022-12-29T06:33:14;47.65;;;7.47;;
9783;SDS011;4931;44.874;-1.092;2022-12-29T06:35:41;44.00;;;6.90;;
9783;SDS011;4931;44.874;-1.092;2022-12-29T06:38:07;37.08;;;5.90;;
9783;SDS011;4931;44.874;-1.092;2022-12-29T06:40:33;44.90;;;5.95;;
9783;SDS011;4931;44.874;-1.092;2022-12-29T06:42:58;46.50;;;5.43;;
9783;SDS011;4931;44.874;-1.092;2022-12-29T06:45:24;32.78;;;5.00;;
9783;SDS011;4931;44.874;-1.092;2022-12-29T06:47:49;36.22;;;4.78;;
9783;SDS011;4931;44.874;-1.092;2022-12-29T06:50:15;45.00;;;5.47;;
9783;SDS011;4931;44.874;-1.092;2022-12-29T06:52:40;37.38;;;4.68;;
9783;SDS011;4931;44.874;-1.092;2022-12-29T06:55:06;43.50;;;5.07;;
9783;SDS011;4931;44.874;-1.092;2022-12-29T06:57:32;27.65;;;4.78;;
9783;SDS011;4931;44.874;-1.092;2022-12-29T06:59:57;36.53;;;4.95;;
9783;SDS011;4931;44.874;-1.092;2022-12-29T07:02:23;34.35;;;4.90;;
9783;SDS011;4931;44.874;-1.092;2022-12-29T07:04:50;32.33;;;4.82;;
9783;SDS011;4931;44.874;-1.092;2022-12-29T07:07:17;29.63;;;4.00;;
9783;SDS011;4931;44.874;-1.092;2022-12-29T07:09:43;37.92;;;4.75;;
9783;SDS011;4931;44.874;-1.092;2022-12-29T07:12:09;36.13;;;4.97;;
9783;SDS011;4931;44.874;-1.092;2022-12-29T07:14:34;38.42;;;5.25;;
9783;SDS011;4931;44.874;-1.092;2022-12-29T07:17:01;34.65;;;5.65;;
9783;SDS011;4931;44.874;-1.092;2022-12-29T07:19:28;40.17;;;5.60;;
9783;SDS011;4931;44.874;-1.092;2022-12-29T07:21:54;44.22;;;5.65;;
9783;SDS011;4931;44.874;-1.092;2022-12-29T07:24:19;30.88;;;4.75;;
9783;SDS011;4931;44.874;-1.092;2022-12-29T07:26:45;38.95;;;6.63;;
9783;SDS011;4931;44.874;-1.092;2022-12-29T07:29:10;42.40;;;5.38;;
9783;SDS011;4931;44.874;-1.092;2022-12-29T07:31:36;41.70;;;5.85;;
9783;SDS011;4931;44.874;-1.092;2022-12-29T07:34:01;36.15;;;5.35;;
9783;SDS011;4931;44.874;-1.092;2022-12-29T07:36:26;41.22;;;5.55;;
9783;SDS011;4931;44.874;-1.092;2022-12-29T07:38:52;40.55;;;5.13;;
9783;SDS011;4931;44.874;-1.092;2022-12-29T07:41:17;35.20;;;4.78;;
9783;SDS011;4931;44.874;-1.092;2022-12-29T07:43:46;27.67;;;4.68;;
9783;SDS011;4931;44.874;-1.092;2022-12-29T07:46:13;37.60;;;5.37;;
9783;SDS011;4931;44.874;-1.092;2022-12-29T07:48:38;38.13;;;4.80;;
9783;SDS011;4931;44.874;-1.092;2022-12-29T07:51:04;38.58;;;5.53;;
9783;SDS011;4931;44.874;-1.092;2022-12-29T07:53:29;31.67;;;5.13;;
9783;SDS011;4931;44.874;-1.092;2022-12-29T07:55:55;42.17;;;6.68;;
9783;SDS011;4931;44.874;-1.092;2022-12-29T07:58:21;40.25;;;6.45;;
9783;SDS011;4931;44.874;-1.092;2022-12-29T08:00:46;31.48;;;5.90;;
9783;SDS011;4931;44.874;-1.092;2022-12-29T08:03:12;35.55;;;6.97;;
9783;SDS011;4931;44.874;-1.092;2022-12-29T08:05:37;34.45;;;5.75;;
9783;SDS011;4931;44.874;-1.092;2022-12-29T08:08:03;32.10;;;4.47;;
9783;SDS011;4931;44.874;-1.092;2022-12-29T08:10:29;28.25;;;4.38;;
9783;SDS011;4931;44.874;-1.092;2022-12-29T08:12:54;32.08;;;4.72;;
9783;SDS011;4931;44.874;-1.092;2022-12-29T08:15:20;30.45;;;4.63;;
9783;SDS011;4931;44.874;-1.092;2022-12-29T08:17:45;21.85;;;3.38;;
9783;SDS011;4931;44.874;-1.092;2022-12-29T08:20:11;26.15;;;3.83;;
9783;SDS011;4931;44.874;-1.092;2022-12-29T08:22:36;29.25;;;4.50;;
9783;SDS011;4931;44.874;-1.092;2022-12-29T08:25:02;27.75;;;4.03;;
9783;SDS011;4931;44.874;-1.092;2022-12-29T08:27:28;26.95;;;4.28;;
9783;SDS011;4931;44.874;-1.092;2022-12-29T08:29:53;26.25;;;4.10;;
9783;SDS011;4931;44.874;-1.092;2022-12-29T08:32:19;25.92;;;3.90;;
9783;SDS011;4931;44.874;-1.092;2022-12-29T08:34:45;27.70;;;4.05;;
9783;SDS011;4931;44.874;-1.092;2022-12-29T08:37:11;25.92;;;3.50;;
9783;SDS011;4931;44.874;-1.092;2022-12-29T08:39:36;29.05;;;4.00;;
9783;SDS011;4931;44.874;-1.092;2022-12-29T08:42:02;28.13;;;4.03;;
9783;SDS011;4931;44.874;-1.092;2022-12-29T08:44:27;24.52;;;5.15;;
9783;SDS011;4931;44.874;-1.092;2022-12-29T08:46:53;26.38;;;3.58;;
9783;SDS011;4931;44.874;-1.092;2022-12-29T08:49:18;21.17;;;3.15;;
9783;SDS011;4931;44.874;-1.092;2022-12-29T08:51:44;18.52;;;2.78;;
9783;SDS011;4931;44.874;-1.092;2022-12-29T08:54:09;20.42;;;2.70;;
9783;SDS011;4931;44.874;-1.092;2022-12-29T08:56:34;19.83;;;3.35;;
9783;SDS011;4931;44.874;-1.092;2022-12-29T08:59:00;18.38;;;2.42;;
9783;SDS011;4931;44.874;-1.092;2022-12-29T09:01:26;20.98;;;3.67;;
9783;SDS011;4931;44.874;-1.092;2022-12-29T09:03:52;16.10;;;2.60;;
9783;SDS011;4931;44.874;-1.092;2022-12-29T09:06:19;13.68;;;2.55;;
9783;SDS011;4931;44.874;-1.092;2022-12-29T09:08:44;23.63;;;5.88;;
9783;SDS011;4931;44.874;-1.092;2022-12-29T09:11:14;12.27;;;3.40;;
9783;SDS011;4931;44.874;-1.092;2022-12-29T09:13:45;15.32;;;2.30;;
9783;SDS011;4931;44.874;-1.092;2022-12-29T09:16:11;19.42;;;2.63;;
9783;SDS011;4931;44.874;-1.092;2022-12-29T09:18:36;14.05;;;2.13;;
9783;SDS011;4931;44.874;-1.092;2022-12-29T09:21:03;17.90;;;2.05;;
9783;SDS011;4931;44.874;-1.092;2022-12-29T09:23:30;18.13;;;5.63;;
9783;SDS011;4931;44.874;-1.092;2022-12-29T09:25:56;22.05;;;8.32;;
9783;SDS011;4931;44.874;-1.092;2022-12-29T09:28:22;19.25;;;4.10;;
9783;SDS011;4931;44.874;-1.092;2022-12-29T09:30:48;13.15;;;2.38;;
9783;SDS011;4931;44.874;-1.092;2022-12-29T09:33:14;11.65;;;2.58;;
9783;SDS011;4931;44.874;-1.092;2022-12-29T09:35:50;21.60;;;6.07;;
9783;SDS011;4931;44.874;-1.092;2022-12-29T09:38:17;27.20;;;7.28;;
9783;SDS011;4931;44.874;-1.092;2022-12-29T09:40:44;17.90;;;2.85;;
9783;SDS011;4931;44.874;-1.092;2022-12-29T09:48:54;14.23;;;1.67;;
9783;SDS011;4931;44.874;-1.092;2022-12-29T09:51:27;12.13;;;2.42;;
9783;SDS011;4931;44.874;-1.092;2022-12-29T09:53:56;14.98;;;2.15;;
9783;SDS011;4931;44.874;-1.092;2022-12-29T09:56:25;12.77;;;2.08;;
9783;SDS011;4931;44.874;-1.092;2022-12-29T09:58:59;16.73;;;2.50;;
9783;SDS011;4931;44.874;-1.092;2022-12-29T10:01:33;13.75;;;2.42;;
9783;SDS011;4931;44.874;-1.092;2022-12-29T10:04:00;17.20;;;2.30;;
9783;SDS011;4931;44.874;-1.092;2022-12-29T10:06:41;19.85;;;2.45;;
9783;SDS011;4931;44.874;-1.092;2022-12-29T10:09:19;18.77;;;2.22;;
9783;SDS011;4931;44.874;-1.092;2022-12-29T10:20:00;18.05;;;2.20;;
9783;SDS011;4931;44.874;-1.092;2022-12-29T10:25:28;14.70;;;2.38;;
9783;SDS011;4931;44.874;-1.092;2022-12-29T10:28:01;20.65;;;2.13;;
9783;SDS011;4931;44.874;-1.092;2022-12-29T10:30:42;24.58;;;2.72;;
9783;SDS011;4931;44.874;-1.092;2022-12-29T10:33:11;20.42;;;2.50;;
9783;SDS011;4931;44.874;-1.092;2022-12-29T10:43:51;24.05;;;3.08;;
9783;SDS011;4931;44.874;-1.092;2022-12-29T10:46:23;24.90;;;4.65;;
9783;SDS011;4931;44.874;-1.092;2022-12-29T10:48:52;23.77;;;3.08;;
9783;SDS011;4931;44.874;-1.092;2022-12-29T10:51:22;17.77;;;2.58;;
9783;SDS011;4931;44.874;-1.092;2022-12-29T10:54:04;21.30;;;2.60;;
9783;SDS011;4931;44.874;-1.092;2022-12-29T10:56:40;21.52;;;2.42;;
9783;SDS011;4931;44.874;-1.092;2022-12-29T10:59:19;28.13;;;7.13;;
9783;SDS011;4931;44.874;-1.092;2022-12-29T11:07:29;19.95;;;2.65;;
9783;SDS011;4931;44.874;-1.092;2022-12-29T11:09:55;16.00;;;2.53;;
9783;SDS011;4931;44.874;-1.092;2022-12-29T11:13:10;18.33;;;2.17;;
9783;SDS011;4931;44.874;-1.092;2022-12-29T11:15:45;14.18;;;1.60;;
9783;SDS011;4931;44.874;-1.092;2022-12-29T11:21:02;16.15;;;2.33;;
9783;SDS011;4931;44.874;-1.092;2022-12-29T11:28:47;13.15;;;2.70;;
9783;SDS011;4931;44.874;-1.092;2022-12-29T11:31:29;13.10;;;3.55;;
9783;SDS011;4931;44.874;-1.092;2022-12-29T11:33:55;15.65;;;5.18;;
9783;SDS011;4931;44.874;-1.092;2022-12-29T11:36:21;18.48;;;3.83;;
9783;SDS011;4931;44.874;-1.092;2022-12-29T11:38:50;12.82;;;2.20;;
9783;SDS011;4931;44.874;-1.092;2022-12-29T11:41:28;19.88;;;4.03;;
9783;SDS011;4931;44.874;-1.092;2022-12-29T11:43:56;14.40;;;4.07;;
9783;SDS011;4931;44.874;-1.092;2022-12-29T11:46:31;15.93;;;3.13;;
9783;SDS011;4931;44.874;-1.092;2022-12-29T11:48:59;12.70;;;3.70;;
9783;SDS011;4931;44.874;-1.092;2022-12-29T11:51:38;10.65;;;2.42;;
9783;SDS011;4931;44.874;-1.092;2022-12-29T11:54:09;12.68;;;3.40;;
9783;SDS011;4931;44.874;-1.092;2022-12-29T11:56:42;16.35;;;6.13;;
9783;SDS011;4931;44.874;-1.092;2022-12-29T11:59:21;18.02;;;4.57;;
9783;SDS011;4931;44.874;-1.092;2022-12-29T12:04:44;19.23;;;4.43;;
9783;SDS011;4931;44.874;-1.092;2022-12-29T12:10:11;17.73;;;2.38;;
9783;SDS011;4931;44.874;-1.092;2022-12-29T12:12:50;16.23;;;2.00;;
9783;SDS011;4931;44.874;-1.092;2022-12-29T12:15:30;16.75;;;2.28;;
9783;SDS011;4931;44.874;-1.092;2022-12-29T12:18:04;18.05;;;3.80;;
9783;SDS011;4931;44.874;-1.092;2022-12-29T12:25:54;17.00;;;3.90;;
9783;SDS011;4931;44.874;-1.092;2022-12-29T12:28:33;26.40;;;6.43;;
9783;SDS011;4931;44.874;-1.092;2022-12-29T12:31:05;18.50;;;3.40;;
9783;SDS011;4931;44.874;-1.092;2022-12-29T12:33:44;17.50;;;2.90;;
9783;SDS011;4931;44.874;-1.092;2022-12-29T12:39:33;15.25;;;3.13;;
9783;SDS011;4931;44.874;-1.092;2022-12-29T12:42:26;16.10;;;3.53;;
9783;SDS011;4931;44.874;-1.092;2022-12-29T12:58:43;12.63;;;2.30;;
9783;SDS011;4931;44.874;-1.092;2022-12-29T13:07:02;14.60;;;4.43;;
9783;SDS011;4931;44.874;-1.092;2022-12-29T13:17:40;13.48;;;2.30;;
9783;SDS011;4931;44.874;-1.092;2022-12-29T13:23:16;13.65;;;1.88;;
9783;SDS011;4931;44.874;-1.092;2022-12-29T13:36:44;14.18;;;2.30;;
9783;SDS011;4931;44.874;-1.092;2022-12-29T13:39:28;15.27;;;2.15;;
9783;SDS011;4931;44.874;-1.092;2022-12-29T13:42:00;14.55;;;2.70;;
9783;SDS011;4931;44.874;-1.092;2022-12-29T13:47:04;22.73;;;3.20;;
9783;SDS011;4931;44.874;-1.092;2022-12-29T13:49:52;21.00;;;3.47;;
9783;SDS011;4931;44.874;-1.092;2022-12-29T13:52:24;16.15;;;2.42;;
9783;SDS011;4931;44.874;-1.092;2022-12-29T13:57:35;16.75;;;3.15;;
9783;SDS011;4931;44.874;-1.092;2022-12-29T14:00:44;23.20;;;4.47;;
9783;SDS011;4931;44.874;-1.092;2022-12-29T14:06:25;26.83;;;7.03;;
9783;SDS011;4931;44.874;-1.092;2022-12-29T14:08:57;23.15;;;4.13;;
9783;SDS011;4931;44.874;-1.092;2022-12-29T14:14:11;16.70;;;3.42;;
9783;SDS011;4931;44.874;-1.092;2022-12-29T14:16:43;18.00;;;3.75;;
9783;SDS011;4931;44.874;-1.092;2022-12-29T14:19:18;18.98;;;4.05;;
9783;SDS011;4931;44.874;-1.092;2022-12-29T14:22:02;24.25;;;2.60;;
9783;SDS011;4931;44.874;-1.092;2022-12-29T14:35:22;41.08;;;16.23;;
9783;SDS011;4931;44.874;-1.092;2022-12-29T14:38:06;48.45;;;17.73;;
9783;SDS011;4931;44.874;-1.092;2022-12-29T14:40:39;21.05;;;5.07;;
9783;SDS011;4931;44.874;-1.092;2022-12-29T14:43:06;16.88;;;4.28;;
9783;SDS011;4931;44.874;-1.092;2022-12-29T14:45:39;21.95;;;3.58;;
9783;SDS011;4931;44.874;-1.092;2022-12-29T14:48:27;18.75;;;2.60;;
9783;SDS011;4931;44.874;-1.092;2022-12-29T14:50:55;14.82;;;2.63;;
9783;SDS011;4931;44.874;-1.092;2022-12-29T14:56:14;17.58;;;2.65;;
9783;SDS011;4931;44.874;-1.092;2022-12-29T14:58:49;29.02;;;12.52;;
9783;SDS011;4931;44.874;-1.092;2022-12-29T15:04:25;19.33;;;2.90;;
9783;SDS011;4931;44.874;-1.092;2022-12-29T15:06:55;23.58;;;3.08;;
9783;SDS011;4931;44.874;-1.092;2022-12-29T15:19:55;24.50;;;4.10;;
9783;SDS011;4931;44.874;-1.092;2022-12-29T15:22:21;32.65;;;4.13;;
9783;SDS011;4931;44.874;-1.092;2022-12-29T15:24:49;23.58;;;3.92;;
9783;SDS011;4931;44.874;-1.092;2022-12-29T15:27:19;29.80;;;4.35;;
9783;SDS011;4931;44.874;-1.092;2022-12-29T15:29:47;26.80;;;4.97;;
9783;SDS011;4931;44.874;-1.092;2022-12-29T15:32:20;27.08;;;4.07;;
9783;SDS011;4931;44.874;-1.092;2022-12-29T15:34:54;20.90;;;4.15;;
9783;SDS011;4931;44.874;-1.092;2022-12-29T15:37:22;20.08;;;4.38;;
9783;SDS011;4931;44.874;-1.092;2022-12-29T15:39:48;22.23;;;4.50;;
9783;SDS011;4931;44.874;-1.092;2022-12-29T15:45:11;24.65;;;5.00;;
9783;SDS011;4931;44.874;-1.092;2022-12-29T15:47:38;19.98;;;4.90;;
9783;SDS011;4931;44.874;-1.092;2022-12-29T15:50:21;22.65;;;4.70;;
9783;SDS011;4931;44.874;-1.092;2022-12-29T15:52:51;26.95;;;6.25;;
9783;SDS011;4931;44.874;-1.092;2022-12-29T15:55:38;28.30;;;8.48;;
9783;SDS011;4931;44.874;-1.092;2022-12-29T15:58:04;41.17;;;16.00;;
9783;SDS011;4931;44.874;-1.092;2022-12-29T16:00:45;39.17;;;14.10;;
9783;SDS011;4931;44.874;-1.092;2022-12-29T16:05:40;22.30;;;5.63;;
9783;SDS011;4931;44.874;-1.092;2022-12-29T16:08:24;26.63;;;5.57;;
9783;SDS011;4931;44.874;-1.092;2022-12-29T16:10:58;25.15;;;4.05;;
9783;SDS011;4931;44.874;-1.092;2022-12-29T16:13:43;21.30;;;3.97;;
9783;SDS011;4931;44.874;-1.092;2022-12-29T16:16:13;28.67;;;4.20;;
9783;SDS011;4931;44.874;-1.092;2022-12-29T16:18:43;28.95;;;4.32;;
9783;SDS011;4931;44.874;-1.092;2022-12-29T16:21:23;30.17;;;4.47;;
9783;SDS011;4931;44.874;-1.092;2022-12-29T16:23:55;29.65;;;4.47;;
9783;SDS011;4931;44.874;-1.092;2022-12-29T16:26:26;32.30;;;4.30;;
9783;SDS011;4931;44.874;-1.092;2022-12-29T16:28:55;31.83;;;5.15;;
9783;SDS011;4931;44.874;-1.092;2022-12-29T16:31:24;30.75;;;4.78;;
9783;SDS011;4931;44.874;-1.092;2022-12-29T16:33:58;25.52;;;4.43;;
9783;SDS011;4931;44.874;-1.092;2022-12-29T16:36:40;30.85;;;4.00;;
9783;SDS011;4931;44.874;-1.092;2022-12-29T16:39:25;25.05;;;3.97;;
9783;SDS011;4931;44.874;-1.092;2022-12-29T16:41:54;26.23;;;4.35;;
9783;SDS011;4931;44.874;-1.092;2022-12-29T16:44:21;32.28;;;5.30;;
9783;SDS011;4931;44.874;-1.092;2022-12-29T16:49:35;28.25;;;6.00;;
9783;SDS011;4931;44.874;-1.092;2022-12-29T16:52:13;33.25;;;4.47;;
9783;SDS011;4931;44.874;-1.092;2022-12-29T16:54:49;35.67;;;4.72;;
9783;SDS011;4931;44.874;-1.092;2022-12-29T16:57:21;30.15;;;4.68;;
9783;SDS011;4931;44.874;-1.092;2022-12-29T16:59:56;32.90;;;6.32;;
9783;SDS011;4931;44.874;-1.092;2022-12-29T17:02:25;28.70;;;6.32;;
9783;SDS011;4931;44.874;-1.092;2022-12-29T17:04:53;39.67;;;7.22;;
9783;SDS011;4931;44.874;-1.092;2022-12-29T17:07:20;29.02;;;5.88;;
9783;SDS011;4931;44.874;-1.092;2022-12-29T17:09:47;30.05;;;6.25;;
9783;SDS011;4931;44.874;-1.092;2022-12-29T17:12:17;28.70;;;6.22;;
9783;SDS011;4931;44.874;-1.092;2022-12-29T17:17:33;52.65;;;17.33;;
9783;SDS011;4931;44.874;-1.092;2022-12-29T17:19:59;29.98;;;5.65;;
9783;SDS011;4931;44.874;-1.092;2022-12-29T17:22:28;26.13;;;4.70;;
9783;SDS011;4931;44.874;-1.092;2022-12-29T17:24:55;28.30;;;7.43;;
9783;SDS011;4931;44.874;-1.092;2022-12-29T17:27:27;36.85;;;6.43;;
9783;SDS011;4931;44.874;-1.092;2022-12-29T17:30:20;22.70;;;4.18;;
9783;SDS011;4931;44.874;-1.092;2022-12-29T17:32:51;23.52;;;4.90;;
9783;SDS011;4931;44.874;-1.092;2022-12-29T17:35:19;26.40;;;4.72;;
9783;SDS011;4931;44.874;-1.092;2022-12-29T17:37:46;19.70;;;3.55;;
9783;SDS011;4931;44.874;-1.092;2022-12-29T17:40:16;19.73;;;4.50;;
9783;SDS011;4931;44.874;-1.092;2022-12-29T17:42:43;21.67;;;8.57;;
9783;SDS011;4931;44.874;-1.092;2022-12-29T17:45:14;25.90;;;8.15;;
9783;SDS011;4931;44.874;-1.092;2022-12-29T17:47:41;16.55;;;3.40;;
9783;SDS011;4931;44.874;-1.092;2022-12-29T17:50:10;14.75;;;3.05;;
9783;SDS011;4931;44.874;-1.092;2022-12-29T17:52:37;16.42;;;3.78;;
9783;SDS011;4931;44.874;-1.092;2022-12-29T17:55:03;12.52;;;3.03;;
9783;SDS011;4931;44.874;-1.092;2022-12-29T17:57:29;14.60;;;2.42;;
9783;SDS011;4931;44.874;-1.092;2022-12-29T17:59:54;17.35;;;3.67;;
9783;SDS011;4931;44.874;-1.092;2022-12-29T18:02:22;13.75;;;3.50;;
9783;SDS011;4931;44.874;-1.092;2022-12-29T18:04:50;12.20;;;2.67;;